createdAt,value
2018-12-23T00:00:28.663Z,2.33
2018-12-23T00:02:57.080Z,2.17
2018-12-23T00:05:25.474Z,2.27
2018-12-23T00:07:53.950Z,1.70
2018-12-23T00:10:22.279Z,1.93
2018-12-23T00:12:50.737Z,2.30
2018-12-23T00:15:19.103Z,3.07
2018-12-23T00:17:47.477Z,2.90
2018-12-23T00:20:15.871Z,2.10
2018-12-23T00:22:44.247Z,2.97
2018-12-23T00:25:12.600Z,2.07
2018-12-23T00:27:40.971Z,3.07
2018-12-23T00:30:09.934Z,2.60
2018-12-23T00:32:38.436Z,1.80
2018-12-23T00:35:06.796Z,2.10
2018-12-23T00:37:35.165Z,2.80
2018-12-23T00:40:03.797Z,2.70
2018-12-23T00:42:32.224Z,2.87
2018-12-23T00:45:00.682Z,2.17
2018-12-23T00:47:29.169Z,2.93
2018-12-23T00:49:57.487Z,2.57
2018-12-23T00:52:26.231Z,2.70
2018-12-23T00:54:54.590Z,2.60
2018-12-23T00:57:22.963Z,2.33
2018-12-23T00:59:51.340Z,2.13
2018-12-23T01:02:19.676Z,2.20
2018-12-23T01:04:48.005Z,1.67
2018-12-23T01:07:16.577Z,1.70
2018-12-23T01:09:44.898Z,3.00
2018-12-23T01:12:13.332Z,1.80
2018-12-23T01:14:41.643Z,2.00
2018-12-23T01:17:10.005Z,2.13
2018-12-23T01:19:38.368Z,2.50
2018-12-23T01:22:06.700Z,2.20
2018-12-23T01:24:35.075Z,1.47
2018-12-23T01:27:03.502Z,2.07
2018-12-23T01:29:31.981Z,1.83
2018-12-23T01:32:00.392Z,2.47
2018-12-23T01:34:36.890Z,2.50
2018-12-23T01:36:59.092Z,2.20
2018-12-23T01:39:27.660Z,2.43
2018-12-23T01:41:56.023Z,2.20
2018-12-23T01:44:24.423Z,1.90
2018-12-23T01:46:52.868Z,3.40
2018-12-23T01:49:21.339Z,3.50
2018-12-23T01:51:50.865Z,2.87
2018-12-23T01:54:19.223Z,2.30
2018-12-23T01:56:47.555Z,2.00
2018-12-23T01:59:15.923Z,2.30
2018-12-23T02:01:44.303Z,2.40
2018-12-23T02:04:12.653Z,2.40
2018-12-23T02:06:40.975Z,2.07
2018-12-23T02:09:09.409Z,2.50
2018-12-23T02:11:37.890Z,2.37
2018-12-23T02:14:07.220Z,1.90
2018-12-23T02:16:36.144Z,2.40
2018-12-23T02:19:04.519Z,1.90
2018-12-23T02:21:32.952Z,2.47
2018-12-23T02:24:01.415Z,2.10
2018-12-23T02:26:29.737Z,2.57
2018-12-23T02:28:58.138Z,2.43
2018-12-23T02:31:26.467Z,3.13
2018-12-23T02:33:54.823Z,2.30
2018-12-23T02:36:23.131Z,2.30
2018-12-23T02:38:51.475Z,2.00
2018-12-23T02:41:19.804Z,2.60
2018-12-23T02:43:48.172Z,2.63
2018-12-23T02:46:16.680Z,2.50
2018-12-23T02:48:45.179Z,3.10
2018-12-23T02:51:13.548Z,2.20
2018-12-23T02:53:41.892Z,2.07
2018-12-23T02:56:10.213Z,1.97
2018-12-23T02:58:38.564Z,2.60
2018-12-23T03:01:06.957Z,2.50
2018-12-23T03:03:35.634Z,2.63
2018-12-23T03:06:06.111Z,1.23
2018-12-23T03:08:34.305Z,2.00
2018-12-23T03:11:02.645Z,1.93
2018-12-23T03:13:30.992Z,1.43
2018-12-23T03:15:59.388Z,2.03
2018-12-23T03:18:27.730Z,1.80
2018-12-23T03:20:56.071Z,2.03
2018-12-23T03:23:24.532Z,1.60
2018-12-23T03:25:52.847Z,1.27
2018-12-23T03:28:21.184Z,2.00
2018-12-23T03:30:49.508Z,2.67
2018-12-23T03:33:17.944Z,2.07
2018-12-23T03:35:46.248Z,1.80
2018-12-23T03:38:14.604Z,1.67
2018-12-23T03:40:42.936Z,2.13
2018-12-23T03:43:11.423Z,1.50
2018-12-23T03:45:39.763Z,1.70
2018-12-23T03:48:08.323Z,2.03
2018-12-23T03:50:36.648Z,2.47
2018-12-23T03:53:05.103Z,1.63
2018-12-23T03:55:33.487Z,2.70
2018-12-23T03:58:01.876Z,2.03
2018-12-23T04:00:30.269Z,2.43
2018-12-23T04:02:58.600Z,1.80
2018-12-23T04:05:26.957Z,2.37
2018-12-23T04:07:55.299Z,1.83
2018-12-23T04:10:23.664Z,3.47
2018-12-23T04:12:52.003Z,2.20
2018-12-23T04:15:20.369Z,1.83
2018-12-23T04:17:48.705Z,1.90
2018-12-23T04:20:17.206Z,1.70
2018-12-23T04:22:45.517Z,3.10
2018-12-23T04:25:13.880Z,1.57
2018-12-23T04:27:42.278Z,1.60
2018-12-23T04:30:10.647Z,1.90
2018-12-23T04:32:38.959Z,2.93
2018-12-23T04:35:07.445Z,1.40
2018-12-23T04:37:35.784Z,1.67
2018-12-23T04:40:04.363Z,2.17
2018-12-23T04:42:32.751Z,2.40
2018-12-23T04:45:01.127Z,2.27
2018-12-23T04:47:29.702Z,1.97
2018-12-23T04:49:58.032Z,2.20
2018-12-23T04:52:26.400Z,2.70
2018-12-23T04:54:54.743Z,1.77
2018-12-23T04:57:23.123Z,1.93
2018-12-23T04:59:51.462Z,1.70
2018-12-23T05:02:19.811Z,2.27
2018-12-23T05:04:48.147Z,1.70
2018-12-23T05:07:16.493Z,1.60
2018-12-23T05:09:44.827Z,2.83
2018-12-23T05:12:13.195Z,1.93
2018-12-23T05:14:41.533Z,2.10
2018-12-23T05:17:09.852Z,1.93
2018-12-23T05:19:38.452Z,2.13
2018-12-23T05:22:06.872Z,2.30
2018-12-23T05:24:35.221Z,2.27
2018-12-23T05:27:03.551Z,1.73
2018-12-23T05:29:32.027Z,1.80
2018-12-23T05:32:00.390Z,1.90
2018-12-23T05:34:28.777Z,1.90
2018-12-23T05:36:57.124Z,1.27
2018-12-23T05:39:25.532Z,2.10
2018-12-23T05:41:53.874Z,2.50
2018-12-23T05:44:22.323Z,2.00
2018-12-23T05:46:50.652Z,1.70
2018-12-23T05:49:19.000Z,2.00
2018-12-23T05:51:47.336Z,2.80
2018-12-23T05:54:15.811Z,1.50
2018-12-23T05:56:44.128Z,1.60
2018-12-23T05:59:12.519Z,1.93
2018-12-23T06:01:40.949Z,2.47
2018-12-23T06:04:09.309Z,1.90
2018-12-23T06:06:37.628Z,2.03
2018-12-23T06:09:07.073Z,2.10
2018-12-23T06:11:35.512Z,1.80
2018-12-23T06:14:03.865Z,1.83
2018-12-23T06:16:32.180Z,2.00
2018-12-23T06:19:00.663Z,1.73
2018-12-23T06:21:29.028Z,1.77
2018-12-23T06:23:57.387Z,2.17
2018-12-23T06:26:25.752Z,1.90
2018-12-23T06:28:54.098Z,2.40
2018-12-23T06:31:22.448Z,3.30
2018-12-23T06:33:50.818Z,1.73
2018-12-23T06:36:19.323Z,1.80
2018-12-23T06:38:47.724Z,1.67
2018-12-23T06:41:16.055Z,2.23
2018-12-23T06:43:44.447Z,2.00
2018-12-23T06:46:12.929Z,1.90
2018-12-23T06:48:41.269Z,1.87
2018-12-23T06:51:09.610Z,1.70
2018-12-23T06:53:37.987Z,2.40
2018-12-23T06:56:06.329Z,1.97
2018-12-23T06:58:34.663Z,2.03
2018-12-23T07:01:03.048Z,1.87
2018-12-23T07:03:31.991Z,2.20
2018-12-23T07:06:00.344Z,2.00
2018-12-23T07:08:28.738Z,2.33
2018-12-23T07:10:57.054Z,1.63
2018-12-23T07:13:25.396Z,1.80
2018-12-23T07:15:53.716Z,2.67
2018-12-23T07:18:22.191Z,2.10
2018-12-23T07:20:50.529Z,2.20
2018-12-23T07:23:18.892Z,2.50
2018-12-23T07:25:47.309Z,2.10
2018-12-23T07:28:15.876Z,2.03
2018-12-23T07:30:44.202Z,2.73
2018-12-23T07:33:12.535Z,3.53
2018-12-23T07:35:41.291Z,2.63
2018-12-23T07:38:09.734Z,2.50
2018-12-23T07:40:38.247Z,2.53
2018-12-23T07:43:06.605Z,2.07
2018-12-23T07:45:34.967Z,2.30
2018-12-23T07:48:09.700Z,2.90
2018-12-23T07:50:38.079Z,2.50
2018-12-23T07:53:06.430Z,2.97
2018-12-23T07:55:34.794Z,3.30
2018-12-23T07:58:03.239Z,3.70
2018-12-23T08:00:31.765Z,3.43
2018-12-23T08:03:00.104Z,3.73
2018-12-23T08:05:28.467Z,3.70
2018-12-23T08:07:56.843Z,2.87
2018-12-23T08:10:25.200Z,2.40
2018-12-23T08:12:53.604Z,2.90
2018-12-23T08:15:21.967Z,3.00
2018-12-23T08:17:50.484Z,3.00
2018-12-23T08:20:18.807Z,2.20
2018-12-23T08:22:47.173Z,2.20
2018-12-23T08:25:15.520Z,2.57
2018-12-23T08:27:44.072Z,2.50
2018-12-23T08:30:12.443Z,2.30
2018-12-23T08:32:40.793Z,4.20
2018-12-23T08:35:09.175Z,2.60
2018-12-23T08:37:44.609Z,2.73
2018-12-23T08:40:07.903Z,2.67
2018-12-23T08:42:36.256Z,4.10
2018-12-23T08:45:04.843Z,2.40
2018-12-23T08:47:33.163Z,2.70
2018-12-23T08:50:01.492Z,2.53
2018-12-23T08:52:30.264Z,2.30
2018-12-23T08:54:58.644Z,2.57
2018-12-23T08:57:26.991Z,2.20
2018-12-23T08:59:55.425Z,2.30
2018-12-23T09:02:23.755Z,2.23
2018-12-23T09:04:52.240Z,2.20
2018-12-23T09:07:20.579Z,2.70
2018-12-23T09:09:48.955Z,2.57
2018-12-23T09:12:17.271Z,2.13
2018-12-23T09:14:45.611Z,2.10
2018-12-23T09:17:14.031Z,3.07
2018-12-23T09:19:42.416Z,2.30
2018-12-23T09:22:10.784Z,2.20
2018-12-23T09:24:39.193Z,2.40
2018-12-23T09:27:07.534Z,2.87
2018-12-23T09:29:35.911Z,2.60
2018-12-23T09:32:04.241Z,2.07
2018-12-23T09:34:32.804Z,1.97
2018-12-23T09:37:01.724Z,1.70
2018-12-23T09:39:30.135Z,1.90
2018-12-23T09:41:58.467Z,2.57
2018-12-23T09:44:26.949Z,1.43
2018-12-23T09:46:55.375Z,2.50
2018-12-23T09:49:23.750Z,2.13
2018-12-23T09:51:52.082Z,3.70
2018-12-23T09:54:20.559Z,2.10
2018-12-23T09:56:48.924Z,2.20
2018-12-23T09:59:17.297Z,2.37
2018-12-23T10:01:45.696Z,2.07
2018-12-23T10:04:14.076Z,1.83
2018-12-23T10:06:42.413Z,1.90
2018-12-23T10:09:10.819Z,2.60
2018-12-23T10:11:39.175Z,2.80
2018-12-23T10:14:07.539Z,2.60
2018-12-23T10:16:36.480Z,2.60
2018-12-23T10:19:04.888Z,2.60
2018-12-23T10:21:33.247Z,3.40
2018-12-23T10:24:01.564Z,1.70
2018-12-23T10:26:29.952Z,3.50
2018-12-23T10:28:58.371Z,3.53
2018-12-23T10:31:26.783Z,2.60
2018-12-23T10:33:55.127Z,3.97
2018-12-23T10:36:23.500Z,2.53
2018-12-23T10:38:51.920Z,1.90
2018-12-23T10:41:20.349Z,2.23
2018-12-23T10:43:48.896Z,2.40
2018-12-23T10:46:17.259Z,1.80
2018-12-23T10:48:45.676Z,2.20
2018-12-23T10:51:14.099Z,1.63
2018-12-23T10:53:42.445Z,2.27
2018-12-23T10:56:10.812Z,2.53
2018-12-23T10:58:39.209Z,2.40
2018-12-23T11:01:07.573Z,1.80
2018-12-23T11:03:35.927Z,2.33
2018-12-23T11:06:04.286Z,2.20
2018-12-23T11:08:32.640Z,2.93
2018-12-23T11:11:01.116Z,2.87
2018-12-23T11:13:29.481Z,2.80
2018-12-23T11:15:57.840Z,4.00
2018-12-23T11:18:26.207Z,1.60
2018-12-23T11:20:54.560Z,2.20
2018-12-23T11:23:22.919Z,2.00
2018-12-23T11:25:51.288Z,3.17
2018-12-23T11:28:19.654Z,2.20
2018-12-23T11:30:48.097Z,2.53
2018-12-23T11:33:16.456Z,3.33
2018-12-23T11:35:44.830Z,2.23
2018-12-23T11:38:13.179Z,2.50
2018-12-23T11:40:41.571Z,2.40
2018-12-23T11:43:09.916Z,2.97
2018-12-23T11:45:38.404Z,3.30
2018-12-23T11:48:06.733Z,3.27
2018-12-23T11:50:35.190Z,3.03
2018-12-23T11:53:03.516Z,3.30
2018-12-23T11:55:31.992Z,2.60
2018-12-23T11:58:00.354Z,3.40
2018-12-23T12:00:29.688Z,2.70
2018-12-23T12:02:58.034Z,2.00
2018-12-23T12:05:26.424Z,1.87
2018-12-23T12:07:54.788Z,3.07
2018-12-23T12:10:23.300Z,3.40
2018-12-23T12:12:51.666Z,1.87
2018-12-23T12:15:20.025Z,1.70
2018-12-23T12:17:48.398Z,2.60
2018-12-23T12:20:16.796Z,2.10
2018-12-23T12:22:45.161Z,3.70
2018-12-23T12:25:13.512Z,2.50
2018-12-23T12:27:42.139Z,2.83
2018-12-23T12:30:10.448Z,3.20
2018-12-23T12:32:38.816Z,2.23
2018-12-23T12:35:07.263Z,2.20
2018-12-23T12:37:35.625Z,2.30
2018-12-23T12:40:03.997Z,2.80
2018-12-23T12:42:32.464Z,2.70
2018-12-23T12:45:00.964Z,2.33
2018-12-23T12:47:29.364Z,2.93
2018-12-23T12:49:58.887Z,2.53
2018-12-23T12:52:27.260Z,3.60
2018-12-23T12:54:55.804Z,3.00
2018-12-23T12:57:24.197Z,3.40
2018-12-23T12:59:52.604Z,4.40
2018-12-23T13:02:20.969Z,2.80
2018-12-23T13:04:49.338Z,2.63
2018-12-23T13:07:17.711Z,2.80
2018-12-23T13:09:46.046Z,2.87
2018-12-23T13:12:14.568Z,3.93
2018-12-23T13:14:42.992Z,2.73
2018-12-23T13:17:11.351Z,2.67
2018-12-23T13:19:39.741Z,2.67
2018-12-23T13:22:08.106Z,2.33
2018-12-23T13:24:36.438Z,1.60
2018-12-23T13:27:04.880Z,2.10
2018-12-23T13:29:33.353Z,2.87
2018-12-23T13:32:01.755Z,4.27
2018-12-23T13:34:30.264Z,3.27
2018-12-23T13:36:58.627Z,3.43
2018-12-23T13:39:26.983Z,3.87
2018-12-23T13:43:06.668Z,3.40
2018-12-23T13:46:44.781Z,3.30
2018-12-23T13:49:42.512Z,4.47
2018-12-23T13:52:24.312Z,4.13
2018-12-23T13:57:08.100Z,3.33
2018-12-23T13:59:50.416Z,2.70
2018-12-23T14:02:29.884Z,3.87
2018-12-23T14:09:20.422Z,2.50
2018-12-23T14:11:56.582Z,2.53
2018-12-23T14:14:24.982Z,2.23
2018-12-23T14:16:53.432Z,3.10
2018-12-23T14:19:22.301Z,2.80
2018-12-23T14:21:50.627Z,2.33
2018-12-23T14:24:19.027Z,2.63
2018-12-23T14:26:47.414Z,2.00
2018-12-23T14:29:15.743Z,2.47
2018-12-23T14:31:44.099Z,2.93
2018-12-23T14:34:13.904Z,2.60
2018-12-23T14:36:42.461Z,2.70
2018-12-23T14:39:11.058Z,2.43
2018-12-23T14:41:39.387Z,2.67
2018-12-23T14:44:07.844Z,2.60
2018-12-23T14:46:36.981Z,2.20
2018-12-23T14:49:05.329Z,4.03
2018-12-23T14:51:33.710Z,3.60
2018-12-23T14:54:02.071Z,3.97
2018-12-23T14:56:30.783Z,3.03
2018-12-23T14:58:59.147Z,2.97
2018-12-23T15:01:27.522Z,1.93
2018-12-23T15:03:55.845Z,2.80
2018-12-23T15:06:24.434Z,1.60
2018-12-23T15:08:52.841Z,1.80
2018-12-23T15:11:21.234Z,1.83
2018-12-23T15:13:49.576Z,1.87
2018-12-23T15:16:18.044Z,1.77
2018-12-23T15:18:47.092Z,1.67
2018-12-23T15:21:15.475Z,2.07
2018-12-23T15:23:43.867Z,2.50
2018-12-23T15:26:12.281Z,2.00
2018-12-23T15:28:40.632Z,2.60
2018-12-23T15:31:08.988Z,2.10
2018-12-23T15:33:37.339Z,2.97
2018-12-23T15:36:05.718Z,3.97
2018-12-23T15:38:34.116Z,1.70
2018-12-23T15:41:02.507Z,2.07
2018-12-23T15:43:30.847Z,1.80
2018-12-23T15:45:59.251Z,1.53
2018-12-23T15:48:27.608Z,1.87
2018-12-23T15:50:56.555Z,1.37
2018-12-23T15:53:24.926Z,2.13
2018-12-23T15:55:53.288Z,2.37
2018-12-23T15:58:21.707Z,1.47
2018-12-23T16:00:50.095Z,1.80
2018-12-23T16:03:18.435Z,1.63
2018-12-23T16:05:46.982Z,1.80
2018-12-23T16:08:15.327Z,1.67
2018-12-23T16:10:44.288Z,1.80
2018-12-23T16:13:12.654Z,1.90
2018-12-23T16:15:40.973Z,1.43
2018-12-23T16:18:09.364Z,1.60
2018-12-23T16:20:37.684Z,1.40
2018-12-23T16:23:06.147Z,1.77
2018-12-23T16:25:34.508Z,1.90
2018-12-23T16:28:02.909Z,1.50
2018-12-23T16:30:32.005Z,1.50
2018-12-23T16:33:00.374Z,1.73
2018-12-23T16:35:28.737Z,1.73
2018-12-23T16:37:57.159Z,2.20
2018-12-23T16:40:25.510Z,1.70
2018-12-23T16:42:53.912Z,2.20
2018-12-23T16:45:22.270Z,1.87
2018-12-23T16:47:50.632Z,2.53
2018-12-23T16:50:19.528Z,2.53
2018-12-23T16:52:47.892Z,2.13
2018-12-23T16:55:16.952Z,1.60
2018-12-23T16:57:45.329Z,2.23
2018-12-23T17:00:15.009Z,2.47
2018-12-23T17:02:43.549Z,1.80
2018-12-23T17:05:11.900Z,1.77
2018-12-23T17:07:40.261Z,2.00
2018-12-23T17:10:09.026Z,1.83
2018-12-23T17:12:37.389Z,1.83
2018-12-23T17:15:06.978Z,1.93
2018-12-23T17:17:35.388Z,1.70
2018-12-23T17:20:04.251Z,1.30
2018-12-23T17:22:32.746Z,0.90
2018-12-23T17:25:01.173Z,1.10
2018-12-23T17:27:29.658Z,2.10
2018-12-23T17:29:58.033Z,1.30
2018-12-23T17:32:26.373Z,1.40
2018-12-23T17:34:54.800Z,1.33
2018-12-23T17:37:23.339Z,1.00
2018-12-23T17:39:51.784Z,1.23
2018-12-23T17:42:20.236Z,0.90
2018-12-23T17:44:48.641Z,1.27
2018-12-23T17:47:17.023Z,1.27
2018-12-23T17:49:45.497Z,1.30
2018-12-23T17:52:13.852Z,0.80
2018-12-23T17:54:42.268Z,0.90
2018-12-23T17:57:10.594Z,1.37
2018-12-23T17:59:39.058Z,0.90
2018-12-23T18:02:07.452Z,0.90
2018-12-23T18:04:35.836Z,1.13
2018-12-23T18:07:04.354Z,1.00
2018-12-23T18:09:32.921Z,0.90
2018-12-23T18:12:01.266Z,0.90
2018-12-23T18:14:29.718Z,1.03
2018-12-23T18:16:58.282Z,0.83
2018-12-23T18:19:26.840Z,0.93
2018-12-23T18:21:55.220Z,1.03
2018-12-23T18:24:24.639Z,0.80
2018-12-23T18:26:53.008Z,0.90
2018-12-23T18:29:21.504Z,0.80
2018-12-23T18:31:49.818Z,1.17
2018-12-23T18:34:18.229Z,0.80
2018-12-23T18:36:46.560Z,0.97
2018-12-23T18:39:15.492Z,1.87
2018-12-23T18:41:43.841Z,0.70
2018-12-23T18:44:12.371Z,0.83
2018-12-23T18:46:40.778Z,0.93
2018-12-23T18:49:09.188Z,0.70
2018-12-23T18:51:37.744Z,0.90
2018-12-23T18:54:06.239Z,0.97
2018-12-23T18:56:38.751Z,0.83
2018-12-23T18:59:07.152Z,1.07
2018-12-23T19:01:37.371Z,0.87
2018-12-23T19:04:05.783Z,1.20
2018-12-23T19:06:34.172Z,1.00
2018-12-23T19:09:10.192Z,0.73
2018-12-23T19:11:52.180Z,0.80
2018-12-23T19:14:34.806Z,0.90
2018-12-23T19:17:14.365Z,0.90
2018-12-23T19:20:00.713Z,0.80
2018-12-23T19:22:40.492Z,1.20
2018-12-23T19:25:53.180Z,0.80
2018-12-23T19:28:43.314Z,0.93
2018-12-23T19:31:24.715Z,0.83
2018-12-23T19:34:11.012Z,0.63
2018-12-23T19:36:53.780Z,3.10
2018-12-23T19:39:31.802Z,1.07
2018-12-23T19:44:23.275Z,0.90
2018-12-23T19:47:04.938Z,0.77
2018-12-23T19:53:54.742Z,0.70
2018-12-23T19:57:04.227Z,0.90
2018-12-23T19:59:45.423Z,0.70
2018-12-23T20:03:36.303Z,0.60
2018-12-23T20:06:22.784Z,1.00
2018-12-23T20:11:10.738Z,1.00
2018-12-23T20:15:56.078Z,0.83
2018-12-23T20:19:39.712Z,1.00
2018-12-23T20:23:34.820Z,0.90
2018-12-23T20:26:55.850Z,1.43
2018-12-23T20:30:01.786Z,0.80
2018-12-23T20:32:45.848Z,0.87
2018-12-23T20:35:49.509Z,0.70
2018-12-23T20:39:09.445Z,0.67
2018-12-23T20:42:34.532Z,0.60
2018-12-23T20:45:46.792Z,0.80
2018-12-23T20:49:11.468Z,0.87
2018-12-23T20:52:22.825Z,1.13
2018-12-23T20:55:31.806Z,0.90
2018-12-23T20:58:24.916Z,0.80
2018-12-23T21:01:53.152Z,0.90
2018-12-23T21:05:03.017Z,1.17
2018-12-23T21:08:05.452Z,1.00
2018-12-23T21:11:26.851Z,1.00
2018-12-23T21:14:49.157Z,0.93
2018-12-23T21:18:14.606Z,0.73
2018-12-23T21:21:15.841Z,0.70
2018-12-23T21:24:21.697Z,0.77
2018-12-23T21:27:34.887Z,0.90
2018-12-23T21:30:47.890Z,0.80
2018-12-23T21:34:02.636Z,0.77
2018-12-23T21:36:45.638Z,0.60
2018-12-23T21:39:41.206Z,1.87
2018-12-23T21:42:50.124Z,1.00
2018-12-23T21:45:59.620Z,0.90
2018-12-23T21:49:06.914Z,0.80
2018-12-23T21:52:14.340Z,0.60
2018-12-23T21:55:21.725Z,0.50
2018-12-23T21:58:29.133Z,0.60
2018-12-23T22:01:36.421Z,0.50
2018-12-23T22:04:17.401Z,0.80
2018-12-23T22:06:58.127Z,0.70
2018-12-23T22:10:05.774Z,0.67
2018-12-23T22:13:13.133Z,0.70
2018-12-23T22:18:55.405Z,0.67
2018-12-23T22:30:38.922Z,0.50
2018-12-23T22:33:27.106Z,1.13
2018-12-23T22:39:14.158Z,0.60
2018-12-23T22:47:49.696Z,0.50
2018-12-23T22:50:37.873Z,0.50
2018-12-23T22:53:26.012Z,0.50
2018-12-23T22:56:14.253Z,0.73
2018-12-23T23:02:11.565Z,0.70
2018-12-23T23:04:59.732Z,0.50
2018-12-23T23:07:40.681Z,0.60
2018-12-23T23:10:21.520Z,0.50
2018-12-23T23:13:02.206Z,0.60
2018-12-23T23:15:43.001Z,0.60
2018-12-23T23:18:23.789Z,0.60
2018-12-23T23:21:04.720Z,0.50
2018-12-23T23:23:45.938Z,0.50
2018-12-23T23:26:26.449Z,0.50
2018-12-23T23:29:07.044Z,0.50
2018-12-23T23:31:48.061Z,0.60
2018-12-23T23:34:27.380Z,0.40
2018-12-23T23:37:15.536Z,0.50
2018-12-23T23:40:03.676Z,0.40
2018-12-23T23:51:33.469Z,0.60
2018-12-23T23:54:21.605Z,0.50
